sensor_id;sensor_type;location;lat;lon;timestamp;P1;durP1;ratioP1;P2;durP2;ratioP2
49372;SDS011;44113;38.408;-122.974;2022-07-29T00:01:30;1.10;;;0.10;;
49372;SDS011;44113;38.408;-122.974;2022-07-29T00:03:57;1.42;;;0.10;;
49372;SDS011;44113;38.408;-122.974;2022-07-29T00:06:24;1.60;;;0.40;;
49372;SDS011;44113;38.408;-122.974;2022-07-29T00:08:51;2.45;;;0.20;;
49372;SDS011;44113;38.408;-122.974;2022-07-29T00:11:17;2.08;;;0.10;;
49372;SDS011;44113;38.408;-122.974;2022-07-29T00:13:44;4.32;;;0.40;;
49372;SDS011;44113;38.408;-122.974;2022-07-29T00:16:10;2.28;;;0.30;;
49372;SDS011;44113;38.408;-122.974;2022-07-29T00:18:38;1.35;;;0.20;;
49372;SDS011;44113;38.408;-122.974;2022-07-29T00:21:04;2.40;;;0.40;;
49372;SDS011;44113;38.408;-122.974;2022-07-29T00:23:31;3.15;;;0.50;;
49372;SDS011;44113;38.408;-122.974;2022-07-29T00:25:59;1.60;;;0.30;;
49372;SDS011;44113;38.408;-122.974;2022-07-29T00:28:26;1.27;;;0.10;;
49372;SDS011;44113;38.408;-122.974;2022-07-29T00:30:52;1.20;;;0.20;;
49372;SDS011;44113;38.408;-122.974;2022-07-29T00:33:19;1.75;;;0.13;;
49372;SDS011;44113;38.408;-122.974;2022-07-29T00:35:47;1.60;;;0.20;;
49372;SDS011;44113;38.408;-122.974;2022-07-29T00:38:14;2.88;;;0.20;;
49372;SDS011;44113;38.408;-122.974;2022-07-29T00:40:42;3.22;;;0.20;;
49372;SDS011;44113;38.408;-122.974;2022-07-29T00:43:11;1.75;;;0.30;;
49372;SDS011;44113;38.408;-122.974;2022-07-29T00:45:39;3.00;;;0.30;;
49372;SDS011;44113;38.408;-122.974;2022-07-29T00:48:09;0.70;;;0.10;;
49372;SDS011;44113;38.408;-122.974;2022-07-29T00:50:35;1.20;;;0.20;;
49372;SDS011;44113;38.408;-122.974;2022-07-29T00:53:03;2.13;;;0.20;;
49372;SDS011;44113;38.408;-122.974;2022-07-29T00:55:31;0.98;;;0.13;;
49372;SDS011;44113;38.408;-122.974;2022-07-29T00:57:58;2.08;;;0.10;;
49372;SDS011;44113;38.408;-122.974;2022-07-29T01:00:26;12.30;;;0.30;;
49372;SDS011;44113;38.408;-122.974;2022-07-29T01:02:54;7.32;;;0.65;;
49372;SDS011;44113;38.408;-122.974;2022-07-29T01:05:22;2.70;;;0.40;;
49372;SDS011;44113;38.408;-122.974;2022-07-29T01:07:52;4.50;;;0.20;;
49372;SDS011;44113;38.408;-122.974;2022-07-29T01:10:19;6.82;;;0.95;;
49372;SDS011;44113;38.408;-122.974;2022-07-29T01:12:49;1.33;;;0.20;;
49372;SDS011;44113;38.408;-122.974;2022-07-29T01:15:16;2.97;;;0.40;;
49372;SDS011;44113;38.408;-122.974;2022-07-29T01:31:27;3.17;;;0.20;;
49372;SDS011;44113;38.408;-122.974;2022-07-29T01:34:03;5.47;;;0.43;;
49372;SDS011;44113;38.408;-122.974;2022-07-29T01:39:11;2.97;;;0.20;;
49372;SDS011;44113;38.408;-122.974;2022-07-29T01:41:49;2.38;;;0.20;;
49372;SDS011;44113;38.408;-122.974;2022-07-29T01:44:29;2.40;;;0.20;;
49372;SDS011;44113;38.408;-122.974;2022-07-29T01:47:15;4.93;;;0.30;;
49372;SDS011;44113;38.408;-122.974;2022-07-29T01:49:47;3.78;;;0.30;;
49372;SDS011;44113;38.408;-122.974;2022-07-29T01:52:23;2.33;;;0.30;;
49372;SDS011;44113;38.408;-122.974;2022-07-29T01:55:09;4.70;;;0.52;;
49372;SDS011;44113;38.408;-122.974;2022-07-29T01:57:42;2.15;;;0.30;;
49372;SDS011;44113;38.408;-122.974;2022-07-29T02:00:12;3.97;;;0.50;;
49372;SDS011;44113;38.408;-122.974;2022-07-29T02:02:40;2.40;;;0.20;;
49372;SDS011;44113;38.408;-122.974;2022-07-29T02:05:10;4.22;;;0.40;;
49372;SDS011;44113;38.408;-122.974;2022-07-29T02:07:40;5.30;;;0.30;;
49372;SDS011;44113;38.408;-122.974;2022-07-29T02:10:09;4.93;;;0.45;;
49372;SDS011;44113;38.408;-122.974;2022-07-29T02:12:37;7.60;;;0.40;;
49372;SDS011;44113;38.408;-122.974;2022-07-29T02:15:06;5.32;;;0.50;;
49372;SDS011;44113;38.408;-122.974;2022-07-29T02:17:35;2.00;;;0.32;;
49372;SDS011;44113;38.408;-122.974;2022-07-29T02:20:06;2.73;;;0.30;;
49372;SDS011;44113;38.408;-122.974;2022-07-29T02:22:35;3.75;;;0.20;;
49372;SDS011;44113;38.408;-122.974;2022-07-29T02:25:05;1.75;;;0.20;;
49372;SDS011;44113;38.408;-122.974;2022-07-29T02:27:34;4.55;;;0.40;;
49372;SDS011;44113;38.408;-122.974;2022-07-29T02:30:04;3.67;;;0.30;;
49372;SDS011;44113;38.408;-122.974;2022-07-29T02:32:34;9.52;;;1.23;;
49372;SDS011;44113;38.408;-122.974;2022-07-29T02:35:02;7.65;;;0.32;;
49372;SDS011;44113;38.408;-122.974;2022-07-29T02:37:30;17.50;;;0.73;;
49372;SDS011;44113;38.408;-122.974;2022-07-29T02:39:57;9.73;;;0.60;;
49372;SDS011;44113;38.408;-122.974;2022-07-29T02:42:26;6.55;;;0.95;;
49372;SDS011;44113;38.408;-122.974;2022-07-29T02:44:55;6.03;;;0.40;;
49372;SDS011;44113;38.408;-122.974;2022-07-29T02:47:40;5.68;;;0.68;;
49372;SDS011;44113;38.408;-122.974;2022-07-29T02:50:16;5.03;;;0.30;;
49372;SDS011;44113;38.408;-122.974;2022-07-29T02:52:54;7.53;;;0.60;;
49372;SDS011;44113;38.408;-122.974;2022-07-29T02:55:26;4.43;;;0.52;;
49372;SDS011;44113;38.408;-122.974;2022-07-29T02:57:58;10.23;;;0.55;;
49372;SDS011;44113;38.408;-122.974;2022-07-29T03:00:28;10.52;;;0.85;;
49372;SDS011;44113;38.408;-122.974;2022-07-29T03:02:58;2.95;;;0.50;;
49372;SDS011;44113;38.408;-122.974;2022-07-29T03:05:29;2.45;;;0.50;;
49372;SDS011;44113;38.408;-122.974;2022-07-29T03:07:58;2.50;;;0.30;;
49372;SDS011;44113;38.408;-122.974;2022-07-29T03:10:28;4.80;;;0.80;;
49372;SDS011;44113;38.408;-122.974;2022-07-29T03:12:55;4.53;;;0.50;;
49372;SDS011;44113;38.408;-122.974;2022-07-29T03:15:23;2.00;;;0.45;;
49372;SDS011;44113;38.408;-122.974;2022-07-29T03:17:51;5.30;;;0.70;;
49372;SDS011;44113;38.408;-122.974;2022-07-29T03:20:19;1.75;;;0.30;;
49372;SDS011;44113;38.408;-122.974;2022-07-29T03:22:46;5.20;;;0.30;;
49372;SDS011;44113;38.408;-122.974;2022-07-29T03:25:16;17.38;;;8.27;;
49372;SDS011;44113;38.408;-122.974;2022-07-29T03:27:44;26.92;;;9.73;;
49372;SDS011;44113;38.408;-122.974;2022-07-29T03:30:11;27.63;;;11.48;;
49372;SDS011;44113;38.408;-122.974;2022-07-29T03:32:39;16.52;;;7.45;;
49372;SDS011;44113;38.408;-122.974;2022-07-29T03:35:07;23.08;;;7.97;;
49372;SDS011;44113;38.408;-122.974;2022-07-29T03:37:35;12.13;;;5.82;;
49372;SDS011;44113;38.408;-122.974;2022-07-29T03:40:03;18.65;;;6.63;;
49372;SDS011;44113;38.408;-122.974;2022-07-29T03:42:35;14.73;;;3.90;;
49372;SDS011;44113;38.408;-122.974;2022-07-29T03:45:06;15.30;;;5.65;;
49372;SDS011;44113;38.408;-122.974;2022-07-29T03:47:35;15.57;;;4.72;;
49372;SDS011;44113;38.408;-122.974;2022-07-29T03:50:06;18.38;;;6.38;;
49372;SDS011;44113;38.408;-122.974;2022-07-29T03:52:37;11.40;;;3.33;;
49372;SDS011;44113;38.408;-122.974;2022-07-29T03:55:03;16.10;;;3.95;;
49372;SDS011;44113;38.408;-122.974;2022-07-29T03:57:31;8.50;;;3.25;;
49372;SDS011;44113;38.408;-122.974;2022-07-29T03:59:58;10.77;;;2.75;;
49372;SDS011;44113;38.408;-122.974;2022-07-29T04:02:27;8.20;;;2.65;;
49372;SDS011;44113;38.408;-122.974;2022-07-29T04:04:54;8.00;;;2.03;;
49372;SDS011;44113;38.408;-122.974;2022-07-29T04:07:20;9.07;;;3.05;;
49372;SDS011;44113;38.408;-122.974;2022-07-29T04:09:47;9.05;;;3.00;;
49372;SDS011;44113;38.408;-122.974;2022-07-29T04:12:13;12.75;;;3.42;;
49372;SDS011;44113;38.408;-122.974;2022-07-29T04:14:40;8.05;;;1.67;;
49372;SDS011;44113;38.408;-122.974;2022-07-29T04:17:07;4.28;;;1.83;;
49372;SDS011;44113;38.408;-122.974;2022-07-29T04:19:33;7.53;;;2.50;;
49372;SDS011;44113;38.408;-122.974;2022-07-29T04:22:00;9.32;;;3.28;;
49372;SDS011;44113;38.408;-122.974;2022-07-29T04:24:27;5.55;;;1.63;;
49372;SDS011;44113;38.408;-122.974;2022-07-29T04:26:54;10.55;;;2.67;;
49372;SDS011;44113;38.408;-122.974;2022-07-29T04:29:20;12.35;;;2.70;;
49372;SDS011;44113;38.408;-122.974;2022-07-29T04:31:48;8.18;;;0.90;;
49372;SDS011;44113;38.408;-122.974;2022-07-29T04:34:14;6.78;;;1.40;;
49372;SDS011;44113;38.408;-122.974;2022-07-29T04:36:41;5.43;;;1.13;;
49372;SDS011;44113;38.408;-122.974;2022-07-29T04:39:07;6.75;;;2.35;;
49372;SDS011;44113;38.408;-122.974;2022-07-29T04:41:34;4.65;;;0.80;;
49372;SDS011;44113;38.408;-122.974;2022-07-29T04:44:00;9.70;;;1.13;;
49372;SDS011;44113;38.408;-122.974;2022-07-29T04:46:30;5.00;;;0.98;;
49372;SDS011;44113;38.408;-122.974;2022-07-29T04:48:57;2.45;;;0.77;;
49372;SDS011;44113;38.408;-122.974;2022-07-29T04:51:23;5.82;;;1.52;;
49372;SDS011;44113;38.408;-122.974;2022-07-29T04:53:49;6.00;;;0.73;;
49372;SDS011;44113;38.408;-122.974;2022-07-29T04:56:16;3.72;;;0.75;;
49372;SDS011;44113;38.408;-122.974;2022-07-29T04:58:42;5.90;;;0.50;;
49372;SDS011;44113;38.408;-122.974;2022-07-29T05:01:08;7.97;;;0.75;;
49372;SDS011;44113;38.408;-122.974;2022-07-29T05:03:35;3.45;;;0.50;;
49372;SDS011;44113;38.408;-122.974;2022-07-29T05:06:02;2.10;;;0.93;;
49372;SDS011;44113;38.408;-122.974;2022-07-29T05:08:28;3.15;;;0.40;;
49372;SDS011;44113;38.408;-122.974;2022-07-29T05:10:55;2.80;;;0.65;;
49372;SDS011;44113;38.408;-122.974;2022-07-29T05:13:21;2.80;;;0.57;;
49372;SDS011;44113;38.408;-122.974;2022-07-29T05:15:47;4.05;;;0.95;;
49372;SDS011;44113;38.408;-122.974;2022-07-29T05:18:14;1.98;;;0.40;;
49372;SDS011;44113;38.408;-122.974;2022-07-29T05:20:41;5.22;;;1.20;;
49372;SDS011;44113;38.408;-122.974;2022-07-29T05:23:07;2.58;;;0.95;;
49372;SDS011;44113;38.408;-122.974;2022-07-29T05:25:34;2.53;;;0.47;;
49372;SDS011;44113;38.408;-122.974;2022-07-29T05:28:00;2.67;;;0.63;;
49372;SDS011;44113;38.408;-122.974;2022-07-29T05:30:27;3.35;;;0.50;;
49372;SDS011;44113;38.408;-122.974;2022-07-29T05:32:53;3.45;;;0.68;;
49372;SDS011;44113;38.408;-122.974;2022-07-29T05:35:19;3.05;;;0.50;;
49372;SDS011;44113;38.408;-122.974;2022-07-29T05:37:46;2.88;;;0.50;;
49372;SDS011;44113;38.408;-122.974;2022-07-29T05:40:12;9.55;;;0.75;;
49372;SDS011;44113;38.408;-122.974;2022-07-29T05:42:39;4.05;;;0.40;;
49372;SDS011;44113;38.408;-122.974;2022-07-29T05:45:07;4.07;;;0.50;;
49372;SDS011;44113;38.408;-122.974;2022-07-29T05:47:34;4.20;;;0.50;;
49372;SDS011;44113;38.408;-122.974;2022-07-29T05:50:00;1.88;;;0.40;;
49372;SDS011;44113;38.408;-122.974;2022-07-29T05:52:27;6.78;;;1.58;;
49372;SDS011;44113;38.408;-122.974;2022-07-29T05:54:53;1.48;;;0.50;;
49372;SDS011;44113;38.408;-122.974;2022-07-29T05:57:20;4.13;;;0.40;;
49372;SDS011;44113;38.408;-122.974;2022-07-29T05:59:49;3.58;;;0.75;;
49372;SDS011;44113;38.408;-122.974;2022-07-29T06:02:16;1.50;;;0.40;;
49372;SDS011;44113;38.408;-122.974;2022-07-29T06:04:44;4.07;;;0.40;;
49372;SDS011;44113;38.408;-122.974;2022-07-29T06:07:10;1.23;;;0.38;;
49372;SDS011;44113;38.408;-122.974;2022-07-29T06:09:36;3.47;;;0.60;;
49372;SDS011;44113;38.408;-122.974;2022-07-29T06:12:03;3.88;;;0.50;;
49372;SDS011;44113;38.408;-122.974;2022-07-29T06:14:30;0.85;;;0.40;;
49372;SDS011;44113;38.408;-122.974;2022-07-29T06:16:57;2.05;;;0.38;;
49372;SDS011;44113;38.408;-122.974;2022-07-29T06:19:24;5.93;;;0.30;;
49372;SDS011;44113;38.408;-122.974;2022-07-29T06:21:51;3.92;;;0.60;;
49372;SDS011;44113;38.408;-122.974;2022-07-29T06:24:17;3.00;;;0.32;;
49372;SDS011;44113;38.408;-122.974;2022-07-29T06:26:44;2.78;;;0.30;;
49372;SDS011;44113;38.408;-122.974;2022-07-29T06:29:11;1.52;;;0.60;;
49372;SDS011;44113;38.408;-122.974;2022-07-29T06:31:38;3.47;;;0.40;;
49372;SDS011;44113;38.408;-122.974;2022-07-29T06:34:05;1.35;;;0.30;;
49372;SDS011;44113;38.408;-122.974;2022-07-29T06:36:34;1.33;;;0.40;;
49372;SDS011;44113;38.408;-122.974;2022-07-29T06:39:05;5.97;;;1.15;;
49372;SDS011;44113;38.408;-122.974;2022-07-29T06:41:32;2.75;;;0.40;;
49372;SDS011;44113;38.408;-122.974;2022-07-29T06:43:59;2.90;;;0.55;;
49372;SDS011;44113;38.408;-122.974;2022-07-29T06:46:26;1.60;;;0.30;;
49372;SDS011;44113;38.408;-122.974;2022-07-29T06:48:52;2.05;;;0.30;;
49372;SDS011;44113;38.408;-122.974;2022-07-29T06:51:20;4.85;;;1.52;;
49372;SDS011;44113;38.408;-122.974;2022-07-29T06:53:47;1.02;;;0.30;;
49372;SDS011;44113;38.408;-122.974;2022-07-29T06:56:13;2.40;;;0.30;;
49372;SDS011;44113;38.408;-122.974;2022-07-29T06:58:40;1.95;;;0.30;;
49372;SDS011;44113;38.408;-122.974;2022-07-29T07:01:06;3.00;;;0.38;;
49372;SDS011;44113;38.408;-122.974;2022-07-29T07:03:33;2.25;;;0.20;;
49372;SDS011;44113;38.408;-122.974;2022-07-29T07:05:59;2.55;;;0.22;;
49372;SDS011;44113;38.408;-122.974;2022-07-29T07:08:26;3.58;;;0.30;;
49372;SDS011;44113;38.408;-122.974;2022-07-29T07:10:53;0.95;;;0.20;;
49372;SDS011;44113;38.408;-122.974;2022-07-29T07:13:20;2.70;;;0.30;;
49372;SDS011;44113;38.408;-122.974;2022-07-29T07:15:46;2.38;;;0.30;;
49372;SDS011;44113;38.408;-122.974;2022-07-29T07:18:14;2.47;;;0.30;;
49372;SDS011;44113;38.408;-122.974;2022-07-29T07:20:41;0.90;;;0.20;;
49372;SDS011;44113;38.408;-122.974;2022-07-29T07:23:07;1.00;;;0.22;;
49372;SDS011;44113;38.408;-122.974;2022-07-29T07:25:34;1.33;;;0.20;;
49372;SDS011;44113;38.408;-122.974;2022-07-29T07:28:00;5.53;;;0.30;;
49372;SDS011;44113;38.408;-122.974;2022-07-29T07:30:27;6.05;;;0.30;;
49372;SDS011;44113;38.408;-122.974;2022-07-29T07:32:54;0.60;;;0.20;;
49372;SDS011;44113;38.408;-122.974;2022-07-29T07:35:20;2.13;;;0.20;;
49372;SDS011;44113;38.408;-122.974;2022-07-29T07:37:47;5.18;;;0.30;;
49372;SDS011;44113;38.408;-122.974;2022-07-29T07:40:13;2.45;;;0.63;;
49372;SDS011;44113;38.408;-122.974;2022-07-29T07:42:40;3.60;;;0.70;;
49372;SDS011;44113;38.408;-122.974;2022-07-29T07:45:07;1.50;;;0.20;;
49372;SDS011;44113;38.408;-122.974;2022-07-29T07:47:37;0.60;;;0.28;;
49372;SDS011;44113;38.408;-122.974;2022-07-29T07:50:05;1.90;;;0.30;;
49372;SDS011;44113;38.408;-122.974;2022-07-29T07:52:34;2.42;;;0.45;;
49372;SDS011;44113;38.408;-122.974;2022-07-29T07:55:10;0.60;;;0.20;;
49372;SDS011;44113;38.408;-122.974;2022-07-29T07:57:37;4.25;;;0.95;;
49372;SDS011;44113;38.408;-122.974;2022-07-29T08:00:03;0.47;;;0.13;;
49372;SDS011;44113;38.408;-122.974;2022-07-29T08:02:31;0.98;;;0.30;;
49372;SDS011;44113;38.408;-122.974;2022-07-29T08:04:57;0.50;;;0.20;;
49372;SDS011;44113;38.408;-122.974;2022-07-29T08:07:24;0.43;;;0.20;;
49372;SDS011;44113;38.408;-122.974;2022-07-29T08:09:51;1.13;;;0.20;;
49372;SDS011;44113;38.408;-122.974;2022-07-29T08:12:17;0.52;;;0.20;;
49372;SDS011;44113;38.408;-122.974;2022-07-29T08:14:45;0.68;;;0.20;;
49372;SDS011;44113;38.408;-122.974;2022-07-29T08:17:11;2.97;;;0.20;;
49372;SDS011;44113;38.408;-122.974;2022-07-29T08:19:37;0.95;;;0.20;;
49372;SDS011;44113;38.408;-122.974;2022-07-29T08:22:04;0.68;;;0.20;;
49372;SDS011;44113;38.408;-122.974;2022-07-29T08:24:30;0.38;;;0.10;;
49372;SDS011;44113;38.408;-122.974;2022-07-29T08:27:12;2.22;;;0.30;;
49372;SDS011;44113;38.408;-122.974;2022-07-29T08:29:39;0.93;;;0.20;;
49372;SDS011;44113;38.408;-122.974;2022-07-29T08:32:05;2.42;;;0.20;;
49372;SDS011;44113;38.408;-122.974;2022-07-29T08:34:32;2.78;;;0.20;;
49372;SDS011;44113;38.408;-122.974;2022-07-29T08:36:58;0.70;;;0.20;;
49372;SDS011;44113;38.408;-122.974;2022-07-29T08:39:25;1.95;;;0.30;;
49372;SDS011;44113;38.408;-122.974;2022-07-29T08:41:52;1.63;;;0.20;;
49372;SDS011;44113;38.408;-122.974;2022-07-29T08:44:20;5.35;;;0.50;;
49372;SDS011;44113;38.408;-122.974;2022-07-29T08:46:50;2.00;;;0.20;;
49372;SDS011;44113;38.408;-122.974;2022-07-29T08:49:17;11.38;;;0.30;;
49372;SDS011;44113;38.408;-122.974;2022-07-29T08:51:44;4.38;;;0.45;;
49372;SDS011;44113;38.408;-122.974;2022-07-29T08:54:11;0.93;;;0.20;;
49372;SDS011;44113;38.408;-122.974;2022-07-29T08:56:41;0.63;;;0.20;;
49372;SDS011;44113;38.408;-122.974;2022-07-29T08:59:08;1.35;;;0.20;;
49372;SDS011;44113;38.408;-122.974;2022-07-29T09:01:37;1.08;;;0.20;;
49372;SDS011;44113;38.408;-122.974;2022-07-29T09:04:05;1.10;;;0.20;;
49372;SDS011;44113;38.408;-122.974;2022-07-29T09:06:37;0.95;;;0.20;;
49372;SDS011;44113;38.408;-122.974;2022-07-29T09:09:08;0.93;;;0.20;;
49372;SDS011;44113;38.408;-122.974;2022-07-29T09:11:34;12.20;;;2.40;;
49372;SDS011;44113;38.408;-122.974;2022-07-29T09:14:01;7.28;;;1.95;;
49372;SDS011;44113;38.408;-122.974;2022-07-29T09:16:47;1.25;;;0.20;;
49372;SDS011;44113;38.408;-122.974;2022-07-29T09:19:19;2.22;;;0.20;;
49372;SDS011;44113;38.408;-122.974;2022-07-29T09:21:47;1.60;;;0.43;;
49372;SDS011;44113;38.408;-122.974;2022-07-29T09:24:23;7.10;;;1.10;;
49372;SDS011;44113;38.408;-122.974;2022-07-29T09:29:37;3.83;;;0.50;;
49372;SDS011;44113;38.408;-122.974;2022-07-29T09:32:08;2.47;;;0.30;;
49372;SDS011;44113;38.408;-122.974;2022-07-29T09:34:35;1.95;;;0.30;;
49372;SDS011;44113;38.408;-122.974;2022-07-29T09:37:03;4.50;;;0.52;;
49372;SDS011;44113;38.408;-122.974;2022-07-29T09:39:31;1.40;;;0.20;;
49372;SDS011;44113;38.408;-122.974;2022-07-29T09:42:00;1.10;;;0.20;;
49372;SDS011;44113;38.408;-122.974;2022-07-29T09:44:44;4.47;;;0.30;;
49372;SDS011;44113;38.408;-122.974;2022-07-29T09:47:15;1.33;;;0.25;;
49372;SDS011;44113;38.408;-122.974;2022-07-29T09:49:59;2.58;;;0.38;;
49372;SDS011;44113;38.408;-122.974;2022-07-29T09:52:26;3.35;;;0.20;;
49372;SDS011;44113;38.408;-122.974;2022-07-29T09:55:15;1.95;;;0.20;;
49372;SDS011;44113;38.408;-122.974;2022-07-29T09:57:41;1.00;;;0.20;;
49372;SDS011;44113;38.408;-122.974;2022-07-29T10:00:12;0.90;;;0.20;;
49372;SDS011;44113;38.408;-122.974;2022-07-29T10:02:41;1.27;;;0.20;;
49372;SDS011;44113;38.408;-122.974;2022-07-29T10:05:26;1.02;;;0.20;;
49372;SDS011;44113;38.408;-122.974;2022-07-29T10:07:56;2.40;;;0.30;;
49372;SDS011;44113;38.408;-122.974;2022-07-29T10:10:30;0.85;;;0.43;;
49372;SDS011;44113;38.408;-122.974;2022-07-29T10:13:02;0.77;;;0.28;;
49372;SDS011;44113;38.408;-122.974;2022-07-29T10:15:35;1.73;;;0.20;;
49372;SDS011;44113;38.408;-122.974;2022-07-29T10:18:06;0.88;;;0.20;;
49372;SDS011;44113;38.408;-122.974;2022-07-29T10:20:34;0.50;;;0.20;;
49372;SDS011;44113;38.408;-122.974;2022-07-29T10:23:01;2.53;;;0.20;;
49372;SDS011;44113;38.408;-122.974;2022-07-29T10:25:27;0.63;;;0.50;;
49372;SDS011;44113;38.408;-122.974;2022-07-29T10:27:54;0.57;;;0.10;;
49372;SDS011;44113;38.408;-122.974;2022-07-29T10:30:21;0.60;;;0.20;;
49372;SDS011;44113;38.408;-122.974;2022-07-29T10:35:33;2.10;;;0.52;;
49372;SDS011;44113;38.408;-122.974;2022-07-29T10:41:11;1.35;;;0.40;;
49372;SDS011;44113;38.408;-122.974;2022-07-29T10:46:34;1.05;;;0.20;;
49372;SDS011;44113;38.408;-122.974;2022-07-29T10:54:18;0.63;;;0.10;;
49372;SDS011;44113;38.408;-122.974;2022-07-29T10:57:14;0.60;;;0.20;;
49372;SDS011;44113;38.408;-122.974;2022-07-29T11:00:35;0.40;;;0.20;;
49372;SDS011;44113;38.408;-122.974;2022-07-29T11:05:19;0.50;;;0.20;;
49372;SDS011;44113;38.408;-122.974;2022-07-29T11:10:48;1.25;;;0.20;;
49372;SDS011;44113;38.408;-122.974;2022-07-29T11:14:04;0.50;;;0.10;;
49372;SDS011;44113;38.408;-122.974;2022-07-29T11:16:20;0.85;;;0.30;;
49372;SDS011;44113;38.408;-122.974;2022-07-29T11:21:36;1.98;;;0.15;;
49372;SDS011;44113;38.408;-122.974;2022-07-29T11:24:13;0.25;;;0.10;;
49372;SDS011;44113;38.408;-122.974;2022-07-29T11:26:42;1.30;;;0.10;;
49372;SDS011;44113;38.408;-122.974;2022-07-29T11:29:21;0.30;;;0.10;;
49372;SDS011;44113;38.408;-122.974;2022-07-29T11:31:49;1.25;;;0.20;;
49372;SDS011;44113;38.408;-122.974;2022-07-29T11:34:23;1.85;;;0.25;;
49372;SDS011;44113;38.408;-122.974;2022-07-29T11:39:38;0.57;;;0.20;;
49372;SDS011;44113;38.408;-122.974;2022-07-29T11:50:18;0.50;;;0.10;;
49372;SDS011;44113;38.408;-122.974;2022-07-29T11:52:54;0.20;;;0.10;;
49372;SDS011;44113;38.408;-122.974;2022-07-29T11:55:22;0.30;;;0.10;;
49372;SDS011;44113;38.408;-122.974;2022-07-29T11:57:50;0.57;;;0.10;;
49372;SDS011;44113;38.408;-122.974;2022-07-29T12:00:25;0.55;;;0.20;;
49372;SDS011;44113;38.408;-122.974;2022-07-29T12:03:06;0.20;;;0.10;;
49372;SDS011;44113;38.408;-122.974;2022-07-29T12:08:10;0.40;;;0.15;;
49372;SDS011;44113;38.408;-122.974;2022-07-29T12:10:40;2.85;;;0.10;;
49372;SDS011;44113;38.408;-122.974;2022-07-29T12:13:08;0.30;;;0.10;;
49372;SDS011;44113;38.408;-122.974;2022-07-29T12:15:36;0.30;;;0.10;;
49372;SDS011;44113;38.408;-122.974;2022-07-29T12:18:10;0.30;;;0.10;;
49372;SDS011;44113;38.408;-122.974;2022-07-29T12:20:40;0.32;;;0.10;;
49372;SDS011;44113;38.408;-122.974;2022-07-29T12:23:07;0.10;;;0.10;;
49372;SDS011;44113;38.408;-122.974;2022-07-29T12:25:38;0.25;;;0.10;;
49372;SDS011;44113;38.408;-122.974;2022-07-29T12:28:07;0.20;;;0.10;;
49372;SDS011;44113;38.408;-122.974;2022-07-29T12:30:37;0.20;;;0.10;;
49372;SDS011;44113;38.408;-122.974;2022-07-29T12:33:13;0.22;;;0.10;;
49372;SDS011;44113;38.408;-122.974;2022-07-29T12:36:06;0.20;;;0.10;;
49372;SDS011;44113;38.408;-122.974;2022-07-29T12:38:36;0.20;;;0.10;;
49372;SDS011;44113;38.408;-122.974;2022-07-29T12:41:05;0.80;;;0.20;;
49372;SDS011;44113;38.408;-122.974;2022-07-29T12:43:32;0.50;;;0.10;;
49372;SDS011;44113;38.408;-122.974;2022-07-29T12:46:00;0.25;;;0.10;;
49372;SDS011;44113;38.408;-122.974;2022-07-29T12:48:40;0.10;;;0.10;;
49372;SDS011;44113;38.408;-122.974;2022-07-29T12:51:08;0.35;;;0.10;;
49372;SDS011;44113;38.408;-122.974;2022-07-29T12:53:37;0.30;;;0.10;;
49372;SDS011;44113;38.408;-122.974;2022-07-29T12:56:04;0.20;;;0.10;;
49372;SDS011;44113;38.408;-122.974;2022-07-29T12:58:40;0.10;;;0.10;;
49372;SDS011;44113;38.408;-122.974;2022-07-29T13:01:09;0.25;;;0.10;;
49372;SDS011;44113;38.408;-122.974;2022-07-29T13:03:51;0.10;;;0.10;;
49372;SDS011;44113;38.408;-122.974;2022-07-29T13:06:36;0.30;;;0.10;;
49372;SDS011;44113;38.408;-122.974;2022-07-29T13:11:44;0.50;;;0.10;;
49372;SDS011;44113;38.408;-122.974;2022-07-29T13:14:30;0.25;;;0.10;;
49372;SDS011;44113;38.408;-122.974;2022-07-29T13:19:38;0.35;;;0.10;;
49372;SDS011;44113;38.408;-122.974;2022-07-29T13:22:07;0.20;;;0.10;;
49372;SDS011;44113;38.408;-122.974;2022-07-29T13:24:55;0.10;;;0.10;;
49372;SDS011;44113;38.408;-122.974;2022-07-29T13:27:29;0.10;;;0.10;;
49372;SDS011;44113;38.408;-122.974;2022-07-29T13:29:58;0.20;;;0.10;;
49372;SDS011;44113;38.408;-122.974;2022-07-29T13:32:26;0.22;;;0.10;;
49372;SDS011;44113;38.408;-122.974;2022-07-29T13:34:54;0.17;;;0.10;;
49372;SDS011;44113;38.408;-122.974;2022-07-29T13:37:25;0.30;;;0.10;;
49372;SDS011;44113;38.408;-122.974;2022-07-29T13:39:55;0.20;;;0.10;;
49372;SDS011;44113;38.408;-122.974;2022-07-29T13:42:22;0.30;;;0.00;;
49372;SDS011;44113;38.408;-122.974;2022-07-29T13:44:50;0.10;;;0.00;;
49372;SDS011;44113;38.408;-122.974;2022-07-29T13:47:20;0.10;;;0.10;;
49372;SDS011;44113;38.408;-122.974;2022-07-29T13:49:47;0.10;;;0.00;;
49372;SDS011;44113;38.408;-122.974;2022-07-29T13:52:14;0.28;;;0.10;;
49372;SDS011;44113;38.408;-122.974;2022-07-29T13:54:41;0.05;;;0.05;;
49372;SDS011;44113;38.408;-122.974;2022-07-29T13:57:09;0.30;;;0.10;;
49372;SDS011;44113;38.408;-122.974;2022-07-29T13:59:36;0.10;;;0.10;;
49372;SDS011;44113;38.408;-122.974;2022-07-29T14:02:03;0.10;;;0.10;;
49372;SDS011;44113;38.408;-122.974;2022-07-29T14:04:30;0.10;;;0.00;;
49372;SDS011;44113;38.408;-122.974;2022-07-29T14:06:57;0.10;;;0.00;;
49372;SDS011;44113;38.408;-122.974;2022-07-29T14:09:24;2.45;;;0.00;;
49372;SDS011;44113;38.408;-122.974;2022-07-29T14:11:51;0.08;;;0.00;;
49372;SDS011;44113;38.408;-122.974;2022-07-29T14:14:18;0.10;;;0.10;;
49372;SDS011;44113;38.408;-122.974;2022-07-29T14:16:45;0.17;;;0.10;;
49372;SDS011;44113;38.408;-122.974;2022-07-29T14:19:11;0.10;;;0.10;;
49372;SDS011;44113;38.408;-122.974;2022-07-29T14:21:38;0.20;;;0.10;;
49372;SDS011;44113;38.408;-122.974;2022-07-29T14:24:05;0.20;;;0.10;;
49372;SDS011;44113;38.408;-122.974;2022-07-29T14:26:32;0.00;;;0.00;;
49372;SDS011;44113;38.408;-122.974;2022-07-29T14:28:58;0.10;;;0.10;;
49372;SDS011;44113;38.408;-122.974;2022-07-29T14:31:25;0.10;;;0.10;;
49372;SDS011;44113;38.408;-122.974;2022-07-29T14:33:51;0.10;;;0.10;;
49372;SDS011;44113;38.408;-122.974;2022-07-29T14:36:17;0.20;;;0.10;;
49372;SDS011;44113;38.408;-122.974;2022-07-29T14:38:44;0.17;;;0.05;;
49372;SDS011;44113;38.408;-122.974;2022-07-29T14:41:11;0.00;;;0.00;;
49372;SDS011;44113;38.408;-122.974;2022-07-29T14:43:38;0.00;;;0.00;;
49372;SDS011;44113;38.408;-122.974;2022-07-29T14:46:04;0.10;;;0.10;;
49372;SDS011;44113;38.408;-122.974;2022-07-29T14:48:32;0.15;;;0.00;;
49372;SDS011;44113;38.408;-122.974;2022-07-29T14:50:58;0.00;;;0.00;;
49372;SDS011;44113;38.408;-122.974;2022-07-29T14:53:25;0.30;;;0.10;;
49372;SDS011;44113;38.408;-122.974;2022-07-29T14:55:51;0.10;;;0.10;;
49372;SDS011;44113;38.408;-122.974;2022-07-29T14:58:18;0.65;;;0.10;;
49372;SDS011;44113;38.408;-122.974;2022-07-29T15:00:46;0.10;;;0.10;;
49372;SDS011;44113;38.408;-122.974;2022-07-29T15:03:12;0.15;;;0.10;;
49372;SDS011;44113;38.408;-122.974;2022-07-29T15:05:39;0.05;;;0.00;;
49372;SDS011;44113;38.408;-122.974;2022-07-29T15:08:05;0.00;;;0.00;;
49372;SDS011;44113;38.408;-122.974;2022-07-29T15:10:33;0.10;;;0.10;;
49372;SDS011;44113;38.408;-122.974;2022-07-29T15:13:00;0.00;;;0.00;;
49372;SDS011;44113;38.408;-122.974;2022-07-29T15:15:26;0.10;;;0.00;;
49372;SDS011;44113;38.408;-122.974;2022-07-29T15:17:53;0.00;;;0.00;;
49372;SDS011;44113;38.408;-122.974;2022-07-29T15:20:19;0.00;;;0.00;;